Logo AVAMET
Benvolgut visitant, si us plau, ingressa Recuperar contrasenya

Inforatge Pedreguer

Dades diàries. Acumulats / Últims 30 dies disponibles

Data Temperatura (°C) Humitat rel. (%) Pressió rel. (hPa) Vent (km/h) Precipitació
Mínima Mitjana Màxima Amplitud
tèrmica
Mínima Mitjana Màxima Mínima Mitjana Màxima Predom. Mitjana Ràfega
màxima
Total
(mm)
Índex-n
Mínima Mitjana Màxima Mínima Mitjana Màxima n
0 a 1
P0 max
mm 5'
Dades mensuals acumulades fins l'últim dia disponible
11/2019 8,6 13,8 21,8 16,5 14,3 19,9 26,9 18,3 0 51 83 1.004 1.013 1.022   12,5 62,8 1,4
Dades anuals acumulades fins l'últim dia disponible
2019 4,7 15,6 27,9 19,4 10,8 23,7 39,6 34,9 0 66 98 995 1.018 1.037   6,8 83,7 684,8
Últims 30 dies disponibles
17-11-2019 9,2     13,3     17,7 8,5 40 51 83 1.011 1.014 1.016 W 10,6 40,2 1,4 0,37 0,40
16-11-2019 8,6     11,4     14,7 6,1 44 55 63 1.008 1.012 1.016 WSW 8,7 27,4 0,0
15-11-2019 9,5     12,2     15,3 5,8 42 51 59 1.004 1.006 1.008 WNW 10,9 49,9 0,0
12-11-2019 10,8     11,9     14,3 3,5 49 53 62 1.013 1.013 1.014 O 10,1 29,0 0,0
11-11-2019 8,9     13,6     16,8 7,9 39 49 57 1.012 1.014 1.016 WNW 12,7 40,2 0,0
10-11-2019 11,7     14,1     16,3 4,6 40 52 66 1.011 1.013 1.015 WNW 20,1 54,7 0,0
09-11-2019 12,6     15,3     18,7 6,1 35 44 70 1.014 1.018 1.021 W 14,6 53,1 0,0
08-11-2019 11,4     14,1     16,8 5,4 37 46 60 1.010 1.014 1.017 WNW 23,0 61,2 0,0
07-11-2019 13,7     17,3     21,5 7,8 28 51 65 1.009 1.011 1.015 W 10,8 41,8 0,0
06-11-2019 14,3     16,9     21,3 7,0 37 48 56 1.013 1.014 1.016 WNW 14,6 45,1 0,0
05-11-2019 15,9     18,2     20,9 5,0 41 50 59 1.008 1.011 1.013 W 19,2 62,8 0,0
04-11-2019 19,0     21,8     25,8 6,8 42 52 64 1.008 1.011 1.014 W 14,2 53,1 0,0
03-11-2019 19,0     21,0     24,4 5,4 0 50 57 1.004 1.009 1.012 W 6,6 49,9 0,0
02-11-2019 21,8     23,7     26,6 4,8 0 50 62 1.007 1.010 1.013 SW 6,9 33,8 0,0
01-11-2019 20,2     22,6     26,9 6,7 0 62 71 1.017 1.020 1.022 W 4,7 32,2 0,0
31-10-2019 20,2     22,5     26,1 5,9 0 62 75 1.021 1.021 1.023 OSO 7,3 30,6 0,0
30-10-2019 15,8     20,4     24,5 8,7 0 75 89 1.020 1.022 1.023 ENE 1,8 12,9 0,0
29-10-2019 15,7     21,4     24,8 9,1 0 62 84 1.017 1.018 1.021 ENE 1,4 17,7 0,0
28-10-2019 13,7     18,1     23,5 9,8 62 84 94 1.018 1.019 1.022 ESE 1,8 17,7 0,0
27-10-2019 15,1     18,2     21,8 6,7 72 84 92 1.022 1.023 1.024 WSW 2,9 16,1 0,0
26-10-2019 13,4     17,9     22,0 8,6 66 77 89 1.022 1.023 1.024 SE 1,9 14,5 0,0
25-10-2019 14,2     19,0     23,5 9,3 49 62 77 1.022 1.023 1.024 WSW 5,3 24,1 0,0
24-10-2019 12,2     16,6     20,9 8,7 49 61 73 1.013 1.017 1.023 WSW 9,0 29,0 0,0
23-10-2019 10,7     14,7     19,3 8,6 50 71 87 1.007 1.010 1.013 SW 3,5 32,2 3,0 0,36 1,00
22-10-2019 12,8     14,9     16,4 3,6 69 86 97 1.007 1.012 1.019 WNW 9,8 49,9 68,0 0,43 2,90
21-10-2019 13,4     15,3     16,8 3,4 50 75 92 1.017 1.019 1.020 W 2,6 22,5 6,8 0,34 0,60
20-10-2019 16,7     21,0     24,5 7,8 38 61 82 1.007 1.011 1.017 SSW 6,3 48,3 0,0
19-10-2019 17,7     22,0     26,5 8,8 43 58 79 1.008 1.011 1.015 SE 5,3 35,4 0,0
18-10-2019 18,8     23,1     27,8 9,0 43 53 66 1.015 1.017 1.019 SE 3,7 25,7 0,0
17-10-2019 16,0     21,3     26,9 10,9 32 48 64 1.017 1.018 1.020 SE 3,2 25,7 0,0
Últims 13 mesos disponibles
10/2019 10,7 16,8 20,6 20,7 16,4 24,7 31,8 21,1 46 70 87 1.010 1.018 1.023 SE 4,6 56,3 79,0
09/2019 14,0 20,2 23,3 23,7 22,9 27,4 34,3 20,3 54 77 95 1.012 1.019 1.025 SSE 5,7 83,7 177,6
08/2019 19,2 22,8 26,5 26,9 26,4 31,4 38,0 18,8 51 71 83 1.012 1.017 1.022 SSE 6,7 46,7 69,8
07/2019 21,5 23,1 27,9 27,2 27,9 32,1 39,6 18,1 45 65 80 1.008 1.016 1.023 SSE 6,9 66,7 1,2
06/2019 15,1 18,4 22,3 22,9 21,7 27,4 36,2 21,1 40 64 84 1.010 1.017 1.023 SSE 7,9 50,0 0,8
05/2019 10,1 15,0 21,3 19,0 19,4 23,5 30,2 20,1 50 67 83 1.006 1.017 1.026 SSE 6,8 68,5 8,6
04/2019 9,8 12,1 13,9 15,5 14,0 19,5 27,9 18,1 40 69 93 1.001 1.014 1.026 S 8,2 66,7 264,0
03/2019 7,9 10,7 16,1 14,9 11,2 19,2 27,4 19,5 37 60 91 1.012 1.024 1.031 SSE 5,9 56,3 77,8
02/2019 6,3 8,9 12,1 12,8 12,2 17,1 22,6 16,3 36 63 84 997 1.026 1.035 S 6,0 74,1 0,0
01/2019 4,7 8,6 13,3 12,0 10,8 16,0 20,9 16,2 40 59 84 1.004 1.020 1.031 S 6,9 66,7 4,6
12/2018 7,1 10,2 14,1 14,0 12,3 18,4 24,1 17,0 51 69 90 1.010 1.026 1.032 SSE 3,7 58,0 37,4
11/2018 8,4 12,6 16,2 15,3 14,4 18,6 24,2 15,8 46 70 93 1.002 1.016 1.025 OSO 5,7 82,0 128,4
10/2018 8,7 15,9 20,1 19,2 14,4 23,0 28,2 19,5 43 71 88 1.001 1.016 1.027 S 5,6 63,0 95,0
Tots els anys disponibles
2018 3,8 15,3 27,4 18,9 7,7 23,0 37,2 33,4 37 68 93 999 1.018 1.032 SSE 6,6 82,0 590,6
2017 4,7 12,6 19,2 16,2 11,6 20,3 28,9 24,2 60 60 60 1.015 1.015 1.015 5,3 72,2 56,0
Temperatura (°C)
Humitat relativa (%)
Velocitat del vent i ràfega màxima (km/h)
Direcció del vent (°)
Pressió (hPa)
Precipitació (mm)
Nota sobre les dades: s'avisa a l'usuari de la provisionalitat i no oficialitat d'aquestes dades
Logo AVAMET blanc
Web allotjada a Sollutia
Llicència de Creative CommonsLa web d'AVAMET i els seus continguts estan subjectes a una llicència de
Reconeixement - No Comercial - Compartir igual
Últimes estacions: Xàbia - Alt de la Granadella (Soci), Villena - Sierra de Salinas (Soci), Sueca - Centre (Inforatge), Xàbia - La Plana (Soci), Banyeres de Mariola - Molí Sol (Soci), Villena - Villa Ventín (Soci), Benissa - Convent (Soci), - - -